createdAt,value
2022-09-28T00:00:13.031Z,98628.97
2022-09-28T00:02:16.028Z,98621.72
2022-09-28T00:04:20.618Z,98626.78
2022-09-28T00:06:25.352Z,98618.88
2022-09-28T00:08:28.287Z,98627.44
2022-09-28T00:10:31.383Z,98623.88
2022-09-28T00:12:34.648Z,98626.41
2022-09-28T00:14:37.577Z,98621.97
2022-09-28T00:16:43.513Z,98622.16
2022-09-28T00:18:46.872Z,98611.53
2022-09-28T00:21:01.008Z,98610.41
2022-09-28T00:23:04.072Z,98612.41
2022-09-28T00:25:08.179Z,98613.59
2022-09-28T00:27:11.016Z,98605.72
2022-09-28T00:29:22.233Z,98607.34
2022-09-28T00:31:25.338Z,98601.13
2022-09-28T00:33:28.261Z,98607.47
2022-09-28T00:35:31.417Z,98606.66
2022-09-28T00:37:37.779Z,98605.25
2022-09-28T00:39:41.647Z,98600.81
2022-09-28T00:41:45.062Z,98599.44
2022-09-28T00:43:47.956Z,98600.53
2022-09-28T00:45:57.785Z,98599.78
2022-09-28T00:48:00.964Z,98597.06
2022-09-28T00:50:07.519Z,98593.06
2022-09-28T00:52:12.219Z,98594.75
2022-09-28T00:54:17.433Z,98587.50
2022-09-28T00:56:22.523Z,98592.13
2022-09-28T00:58:28.653Z,98587.31
2022-09-28T01:00:32.491Z,98594.44
2022-09-28T01:02:35.552Z,98589.97
2022-09-28T01:04:39.389Z,98594.09
2022-09-28T01:06:42.475Z,98591.25
2022-09-28T01:08:46.405Z,98590.44
2022-09-28T01:10:51.979Z,98586.56
2022-09-28T01:12:56.436Z,98590.72
2022-09-28T01:15:01.915Z,98586.75
2022-09-28T01:17:09.542Z,98590.03
2022-09-28T01:19:33.133Z,98584.88
2022-09-28T01:21:42.443Z,98586.56
2022-09-28T01:24:09.686Z,98592.38
2022-09-28T01:26:44.293Z,98587.22
2022-09-28T01:28:48.382Z,98588.81
2022-09-28T01:31:00.018Z,98576.97
2022-09-28T01:33:06.642Z,98590.78
2022-09-28T01:35:11.222Z,98587.31
2022-09-28T01:37:16.369Z,98585.31
2022-09-28T01:39:21.489Z,98593.06
2022-09-28T01:41:25.428Z,98586.09
2022-09-28T01:43:30.812Z,98584.03
2022-09-28T01:45:37.047Z,98585.84
2022-09-28T01:47:41.778Z,98587.59
2022-09-28T01:49:48.425Z,98586.75
2022-09-28T01:51:55.001Z,98582.53
2022-09-28T01:54:02.276Z,98579.06
2022-09-28T01:56:16.045Z,98577.44
2022-09-28T01:58:23.196Z,98571.38
2022-09-28T02:00:29.072Z,98571.38
2022-09-28T02:02:36.504Z,98573.25
2022-09-28T02:04:42.244Z,98570.81
2022-09-28T02:06:49.457Z,98567.34
2022-09-28T02:08:55.050Z,98576.78
2022-09-28T02:11:16.058Z,98572.13
2022-09-28T02:13:22.127Z,98572.78
2022-09-28T02:15:30.440Z,98566.47
2022-09-28T02:17:34.052Z,98576.91
2022-09-28T02:19:37.359Z,98579.44
2022-09-28T02:21:43.090Z,98570.72
2022-09-28T02:23:55.312Z,98572.50
2022-09-28T02:26:03.057Z,98566.47
2022-09-28T02:28:08.033Z,98562.06
2022-09-28T02:30:11.773Z,98573.44
2022-09-28T02:32:16.627Z,98571.63
2022-09-28T02:34:19.748Z,98570.81
2022-09-28T02:36:23.145Z,98573.81
2022-09-28T02:38:26.026Z,98565.06
2022-09-28T02:40:33.099Z,98574.00
2022-09-28T02:42:49.248Z,98575.31
2022-09-28T02:45:15.082Z,98577.75
2022-09-28T02:47:28.589Z,98578.88
2022-09-28T02:49:36.102Z,98573.25
2022-09-28T02:51:43.408Z,98575.13
2022-09-28T02:54:02.201Z,98574.75
2022-09-28T02:56:16.891Z,98573.63
2022-09-28T02:58:23.316Z,98579.94
2022-09-28T03:00:27.962Z,98576.06
2022-09-28T03:02:37.110Z,98577.38
2022-09-28T03:04:44.229Z,98579.81
2022-09-28T03:06:57.924Z,98574.38
2022-09-28T03:09:05.670Z,98582.91
2022-09-28T03:11:16.649Z,98584.69
2022-09-28T03:13:23.041Z,98591.38
2022-09-28T03:15:28.306Z,98589.69
2022-09-28T03:17:33.645Z,98586.19
2022-09-28T03:19:37.156Z,98591.38
2022-09-28T03:21:41.342Z,98588.19
2022-09-28T03:23:44.719Z,98589.88
2022-09-28T03:25:47.640Z,98586.59
2022-09-28T03:27:50.805Z,98590.91
2022-09-28T03:29:53.743Z,98585.44
2022-09-28T03:31:57.049Z,98591.38
2022-09-28T03:34:01.352Z,98582.25
2022-09-28T03:36:04.393Z,98579.63
2022-09-28T03:38:07.422Z,98578.88
2022-09-28T03:40:13.906Z,98576.09
2022-09-28T03:42:16.804Z,98586.97
2022-09-28T03:44:23.995Z,98584.53
2022-09-28T03:46:28.061Z,98583.78
2022-09-28T03:48:37.592Z,98583.03
2022-09-28T03:50:42.927Z,98583.41
2022-09-28T03:52:46.034Z,98578.34
2022-09-28T03:54:49.515Z,98573.47
2022-09-28T03:56:52.882Z,98573.91
2022-09-28T03:58:56.094Z,98577.50
2022-09-28T04:01:03.408Z,98583.22
2022-09-28T04:03:06.661Z,98583.69
2022-09-28T04:05:09.994Z,98582.84
2022-09-28T04:07:15.423Z,98576.75
2022-09-28T04:09:18.929Z,98580.41
2022-09-28T04:11:21.885Z,98575.16
2022-09-28T04:13:25.122Z,98579.66
2022-09-28T04:15:27.999Z,98583.78
2022-09-28T04:17:34.632Z,98587.38
2022-09-28T04:19:42.219Z,98576.53
2022-09-28T04:22:01.487Z,98582.66
2022-09-28T04:24:06.292Z,98578.81
2022-09-28T04:26:16.644Z,98586.59
2022-09-28T04:28:37.237Z,98585.75
2022-09-28T04:30:40.446Z,98591.47
2022-09-28T04:32:43.355Z,98592.63
2022-09-28T04:34:46.201Z,98594.31
2022-09-28T04:36:51.173Z,98586.03
2022-09-28T04:38:54.576Z,98590.16
2022-09-28T04:41:01.254Z,98590.09
2022-09-28T04:43:04.400Z,98589.69
2022-09-28T04:45:09.444Z,98593.44
2022-09-28T04:47:15.809Z,98583.03
2022-09-28T04:49:38.399Z,98582.00
2022-09-28T04:51:46.696Z,98586.41
2022-09-28T04:53:49.591Z,98588.38
2022-09-28T04:55:57.917Z,98590.09
2022-09-28T04:58:03.290Z,98586.72
2022-09-28T05:00:08.329Z,98581.91
2022-09-28T05:02:15.483Z,98588.03
2022-09-28T05:04:50.543Z,98584.28
2022-09-28T05:07:12.083Z,98598.16
2022-09-28T05:09:15.101Z,98598.44
2022-09-28T05:14:54.136Z,98591.56
2022-09-28T05:16:57.222Z,98591.50
2022-09-28T05:19:03.185Z,98594.78
2022-09-28T05:21:12.864Z,98590.84
2022-09-28T05:23:16.812Z,98595.91
2022-09-28T05:25:19.845Z,98600.78
2022-09-28T05:27:31.657Z,98600.88
2022-09-28T05:29:43.482Z,98603.16
2022-09-28T05:32:06.467Z,98598.25
2022-09-28T05:34:19.263Z,98588.28
2022-09-28T05:36:23.930Z,98591.66
2022-09-28T05:38:27.060Z,98596.75
2022-09-28T05:40:30.148Z,98596.63
2022-09-28T05:42:33.374Z,98594.84
2022-09-28T05:44:38.640Z,98592.97
2022-09-28T05:46:41.842Z,98598.03
2022-09-28T05:48:49.827Z,98593.19
2022-09-28T05:50:54.338Z,98597.22
2022-09-28T05:53:02.410Z,98599.84
2022-09-28T05:55:06.420Z,98597.28
2022-09-28T05:57:10.116Z,98590.16
2022-09-28T05:59:15.509Z,98597.88
2022-09-28T06:01:18.681Z,98591.31
2022-09-28T06:03:22.270Z,98596.75
2022-09-28T06:05:27.169Z,98600.88
2022-09-28T06:07:30.233Z,98594.19
2022-09-28T06:09:33.130Z,98601.47
2022-09-28T06:11:48.336Z,98595.34
2022-09-28T06:14:06.341Z,98600.53
2022-09-28T06:16:10.550Z,98599.38
2022-09-28T06:18:15.188Z,98603.91
2022-09-28T06:20:39.710Z,98603.72
2022-09-28T06:22:45.406Z,98606.69
2022-09-28T06:24:49.182Z,98605.78
2022-09-28T06:26:52.135Z,98616.66
2022-09-28T06:28:56.215Z,98614.22
2022-09-28T06:31:05.150Z,98612.16
2022-09-28T06:33:15.059Z,98615.63
2022-09-28T06:35:18.040Z,98623.25
2022-09-28T06:37:22.305Z,98622.88
2022-09-28T06:39:26.549Z,98632.63
2022-09-28T06:41:29.690Z,98630.72
2022-09-28T06:43:39.706Z,98634.31
2022-09-28T06:45:53.017Z,98638.72
2022-09-28T06:48:15.124Z,98631.97
2022-09-28T06:50:19.446Z,98634.03
2022-09-28T06:52:42.401Z,98636.47
2022-09-28T06:55:00.037Z,98629.03
2022-09-28T06:57:15.125Z,98636.94
2022-09-28T06:59:18.128Z,98634.25
2022-09-28T07:01:21.633Z,98631.69
2022-09-28T07:03:35.119Z,98635.22
2022-09-28T07:05:54.934Z,98637.84
2022-09-28T07:08:20.241Z,98635.56
2022-09-28T07:10:44.499Z,98644.22
2022-09-28T07:13:08.535Z,98643.00
2022-09-28T07:15:22.872Z,98644.19
2022-09-28T07:17:26.136Z,98643.72
2022-09-28T07:19:30.718Z,98654.50
2022-09-28T07:21:33.946Z,98646.31
2022-09-28T07:23:50.827Z,98642.22
2022-09-28T07:25:59.197Z,98642.78
2022-09-28T07:28:20.361Z,98647.38
2022-09-28T07:30:35.372Z,98644.09
2022-09-28T07:32:52.165Z,98642.97
2022-09-28T07:35:09.037Z,98648.66
2022-09-28T07:37:24.340Z,98644.84
2022-09-28T07:39:28.977Z,98649.84
2022-09-28T07:41:33.825Z,98656.19
2022-09-28T07:43:40.326Z,98660.03
2022-09-28T07:45:44.867Z,98662.38
2022-09-28T07:47:48.114Z,98665.41
2022-09-28T07:50:29.398Z,98667.81
2022-09-28T07:52:57.429Z,98671.19
2022-09-28T07:55:12.788Z,98672.09
2022-09-28T07:57:26.784Z,98678.72
2022-09-28T07:59:58.771Z,98673.72
2022-09-28T08:02:23.547Z,98686.47
2022-09-28T08:04:28.402Z,98684.63
2022-09-28T08:06:32.504Z,98689.41
2022-09-28T08:08:35.840Z,98689.50
2022-09-28T08:10:44.450Z,98698.53
2022-09-28T08:13:20.386Z,98697.69
2022-09-28T08:15:37.078Z,98691.75
2022-09-28T08:18:07.079Z,98700.44
2022-09-28T08:20:28.014Z,98695.72
2022-09-28T08:22:32.342Z,98702.28
2022-09-28T08:24:36.507Z,98698.84
2022-09-28T08:26:40.937Z,98707.97
2022-09-28T08:28:45.261Z,98713.22
2022-09-28T08:31:09.556Z,98714.91
2022-09-28T08:33:30.945Z,98712.56
2022-09-28T08:35:57.502Z,98710.25
2022-09-28T08:38:19.034Z,98716.44
2022-09-28T08:40:47.959Z,98717.91
2022-09-28T08:43:11.571Z,98726.47
2022-09-28T08:45:36.095Z,98722.19
2022-09-28T08:48:08.616Z,98726.03
2022-09-28T08:50:31.626Z,98722.00
2022-09-28T08:52:58.484Z,98730.28
2022-09-28T08:55:26.086Z,98717.22
2022-09-28T08:57:33.469Z,98723.34
2022-09-28T08:59:45.219Z,98721.66
2022-09-28T09:01:58.076Z,98719.44
2022-09-28T09:04:02.546Z,98727.78
2022-09-28T09:06:31.317Z,98725.44
2022-09-28T09:08:42.659Z,98720.69
2022-09-28T09:10:52.125Z,98722.06
2022-09-28T09:13:18.401Z,98729.25
2022-09-28T09:15:41.646Z,98730.22
2022-09-28T09:18:04.805Z,98725.03
2022-09-28T09:20:20.689Z,98728.06
2022-09-28T09:22:38.210Z,98734.34
2022-09-28T09:24:49.391Z,98739.16
2022-09-28T09:27:01.658Z,98745.94
2022-09-28T09:29:23.605Z,98740.25
2022-09-28T09:31:44.848Z,98739.50
2022-09-28T09:34:25.083Z,98737.28
2022-09-28T09:36:58.654Z,98740.75
2022-09-28T09:39:35.227Z,98737.28
2022-09-28T09:42:28.264Z,98744.16
2022-09-28T09:45:18.560Z,98737.50
2022-09-28T09:47:43.250Z,98733.34
2022-09-28T09:50:08.405Z,98744.59
2022-09-28T09:52:16.149Z,98736.13
2022-09-28T09:54:23.118Z,98739.84
2022-09-28T09:56:31.337Z,98734.13
2022-09-28T09:58:48.014Z,98741.50
2022-09-28T10:00:56.452Z,98747.09
2022-09-28T10:03:24.148Z,98743.81
2022-09-28T10:05:32.166Z,98745.81
2022-09-28T10:07:43.258Z,98741.72
2022-09-28T10:09:47.725Z,98740.00
2022-09-28T10:11:58.929Z,98742.59
2022-09-28T10:14:01.982Z,98742.25
2022-09-28T10:16:34.259Z,98741.50
2022-09-28T10:18:40.370Z,98741.53
2022-09-28T10:21:13.358Z,98747.66
2022-09-28T10:23:28.347Z,98750.28
2022-09-28T10:25:33.659Z,98744.09
2022-09-28T10:27:40.736Z,98751.25
2022-09-28T10:29:53.780Z,98757.50
2022-09-28T10:31:57.122Z,98753.34
2022-09-28T10:34:05.897Z,98756.19
2022-09-28T10:36:08.901Z,98766.41
2022-09-28T10:38:17.059Z,98767.50
2022-09-28T10:40:30.310Z,98769.81
2022-09-28T10:42:37.428Z,98776.38
2022-09-28T10:44:57.855Z,98773.63
2022-09-28T10:47:23.220Z,98764.31
2022-09-28T10:49:28.586Z,98760.06
2022-09-28T10:51:45.139Z,98763.56
2022-09-28T10:54:03.130Z,98762.63
2022-09-28T10:56:23.956Z,98757.53
2022-09-28T10:58:39.310Z,98757.69
2022-09-28T11:00:44.776Z,98756.28
2022-09-28T11:02:50.680Z,98765.69
2022-09-28T11:05:00.708Z,98759.53
2022-09-28T11:07:17.911Z,98752.88
2022-09-28T11:09:30.584Z,98756.81
2022-09-28T11:11:41.663Z,98754.75
2022-09-28T11:13:47.108Z,98753.91
2022-09-28T11:15:54.447Z,98753.41
2022-09-28T11:18:20.657Z,98753.25
2022-09-28T11:20:35.576Z,98750.16
2022-09-28T11:22:44.342Z,98754.28
2022-09-28T11:24:48.660Z,98752.13
2022-09-28T11:26:54.393Z,98754.69
2022-09-28T11:29:01.190Z,98752.78
2022-09-28T11:31:16.226Z,98747.06
2022-09-28T11:33:40.604Z,98752.78
2022-09-28T11:36:29.647Z,98747.28
2022-09-28T11:38:34.954Z,98747.47
2022-09-28T11:41:15.127Z,98754.38
2022-09-28T11:43:45.840Z,98747.06
2022-09-28T11:45:53.248Z,98743.84
2022-09-28T11:47:59.183Z,98750.66
2022-09-28T11:50:06.413Z,98746.09
2022-09-28T11:52:14.914Z,98742.31
2022-09-28T11:54:28.828Z,98739.16
2022-09-28T11:56:35.865Z,98737.56
2022-09-28T11:58:41.977Z,98732.78
2022-09-28T12:00:51.739Z,98737.34
2022-09-28T12:03:01.999Z,98732.53
2022-09-28T12:05:18.495Z,98731.09
2022-09-28T12:07:29.275Z,98729.44
2022-09-28T12:09:37.931Z,98731.34
2022-09-28T12:11:59.935Z,98732.19
2022-09-28T12:14:22.771Z,98729.53
2022-09-28T12:18:56.226Z,98731.72
2022-09-28T12:21:09.828Z,98726.88
2022-09-28T12:23:17.219Z,98725.66
2022-09-28T12:25:22.550Z,98728.09
2022-09-28T12:27:29.195Z,98722.41
2022-09-28T12:29:36.468Z,98722.16
2022-09-28T12:31:42.156Z,98722.16
2022-09-28T12:33:47.772Z,98724.91
2022-09-28T12:36:07.075Z,98722.75
2022-09-28T12:38:28.834Z,98724.84
2022-09-28T12:40:38.383Z,98722.91
2022-09-28T12:42:52.397Z,98726.66
2022-09-28T12:45:08.178Z,98719.06
2022-09-28T12:47:43.523Z,98717.25
2022-09-28T12:52:30.932Z,98710.91
2022-09-28T12:54:57.403Z,98703.88
2022-09-28T12:57:09.670Z,98697.84
2022-09-28T12:59:19.413Z,98698.59
2022-09-28T13:01:36.205Z,98701.06
2022-09-28T13:04:15.475Z,98700.84
2022-09-28T13:06:42.638Z,98702.34
2022-09-28T13:08:56.358Z,98699.78
2022-09-28T13:11:08.231Z,98693.47
2022-09-28T13:13:26.888Z,98702.97
2022-09-28T13:15:51.504Z,98705.63
2022-09-28T13:18:01.756Z,98715.28
2022-09-28T13:20:16.064Z,98710.00
2022-09-28T13:22:28.443Z,98715.53
2022-09-28T13:24:35.614Z,98716.63
2022-09-28T13:26:44.972Z,98720.38
2022-09-28T13:28:48.515Z,98730.22
2022-09-28T13:30:52.409Z,98732.38
2022-09-28T13:32:57.602Z,98735.59
2022-09-28T13:35:02.180Z,98737.78
2022-09-28T13:37:24.141Z,98741.06
2022-09-28T13:39:38.719Z,98739.91
2022-09-28T13:41:48.801Z,98748.19
2022-09-28T13:44:17.937Z,98752.03
2022-09-28T13:46:26.521Z,98757.78
2022-09-28T13:48:42.572Z,98763.19
2022-09-28T13:51:17.711Z,98759.00
2022-09-28T13:53:28.388Z,98769.59
2022-09-28T13:55:37.172Z,98763.81
2022-09-28T13:57:47.644Z,98763.16
2022-09-28T13:59:59.176Z,98762.03
2022-09-28T14:02:07.759Z,98764.97
2022-09-28T14:04:19.029Z,98764.03
2022-09-28T14:06:24.443Z,98768.41
2022-09-28T14:08:34.668Z,98752.78
2022-09-28T14:10:51.992Z,98764.34
2022-09-28T14:12:56.513Z,98752.78
2022-09-28T14:15:00.331Z,98748.47
2022-09-28T14:17:48.949Z,98743.63
2022-09-28T14:19:54.528Z,98738.72
2022-09-28T14:22:09.184Z,98742.69
2022-09-28T14:24:27.418Z,98742.66
2022-09-28T14:27:03.924Z,98740.75
2022-09-28T14:29:17.052Z,98738.31
2022-09-28T14:31:26.479Z,98744.09
2022-09-28T14:33:31.453Z,98739.19
2022-09-28T14:35:41.771Z,98730.56
2022-09-28T14:38:06.038Z,98728.31
2022-09-28T14:40:36.273Z,98730.63
2022-09-28T14:42:40.375Z,98730.63
2022-09-28T14:45:21.867Z,98731.00
2022-09-28T14:47:27.398Z,98730.63
2022-09-28T14:49:53.279Z,98735.47
2022-09-28T14:52:05.838Z,98732.94
2022-09-28T14:54:17.135Z,98736.75
2022-09-28T14:56:20.750Z,98732.91
2022-09-28T14:58:28.673Z,98742.44
2022-09-28T15:00:33.129Z,98740.03
2022-09-28T15:02:38.451Z,98748.44
2022-09-28T15:04:44.933Z,98737.63
2022-09-28T15:06:49.294Z,98747.97
2022-09-28T15:08:52.865Z,98756.38
2022-09-28T15:10:56.848Z,98754.81
2022-09-28T15:13:01.862Z,98756.88
2022-09-28T15:15:08.973Z,98762.38
2022-09-28T15:17:14.895Z,98764.91
2022-09-28T15:19:23.813Z,98765.50
2022-09-28T15:21:35.011Z,98764.28
2022-09-28T15:23:39.943Z,98762.91
2022-09-28T15:25:51.671Z,98770.00
2022-09-28T15:27:56.391Z,98763.91
2022-09-28T15:30:00.255Z,98763.34
2022-09-28T15:32:04.087Z,98763.47
2022-09-28T15:34:30.925Z,98770.50
2022-09-28T15:36:36.332Z,98778.66
2022-09-28T15:39:25.666Z,98770.25
2022-09-28T15:41:29.208Z,98771.09
2022-09-28T15:43:33.902Z,98784.34
2022-09-28T15:45:44.612Z,98788.03
2022-09-28T15:47:47.610Z,98790.25
2022-09-28T15:49:58.704Z,98790.25
2022-09-28T15:52:03.189Z,98789.75
2022-09-28T15:54:19.339Z,98799.16
2022-09-28T15:56:22.930Z,98795.84
2022-09-28T15:58:26.444Z,98807.59
2022-09-28T16:00:31.490Z,98802.44
2022-09-28T16:02:34.502Z,98813.00
2022-09-28T16:04:40.006Z,98819.03
2022-09-28T16:06:44.374Z,98820.44
2022-09-28T16:08:48.926Z,98809.16
2022-09-28T16:10:55.996Z,98820.56
2022-09-28T16:13:08.471Z,98824.69
2022-09-28T16:15:20.237Z,98821.53
2022-09-28T16:17:33.676Z,98828.31
2022-09-28T16:19:38.341Z,98832.13
2022-09-28T16:21:47.249Z,98829.59
2022-09-28T16:23:52.143Z,98831.34
2022-09-28T16:25:58.843Z,98837.69
2022-09-28T16:28:02.166Z,98832.50
2022-09-28T16:30:16.291Z,98836.63
2022-09-28T16:32:41.754Z,98838.66
2022-09-28T16:34:44.816Z,98849.25
2022-09-28T16:36:50.465Z,98848.78
2022-09-28T16:38:54.390Z,98851.66
2022-09-28T16:41:01.354Z,98850.00
2022-09-28T16:43:07.175Z,98850.72
2022-09-28T16:45:15.538Z,98852.75
2022-09-28T16:47:19.247Z,98856.25
2022-09-28T16:49:23.634Z,98856.88
2022-09-28T16:51:26.627Z,98855.41
2022-09-28T16:53:48.193Z,98857.72
2022-09-28T16:55:51.113Z,98858.78
2022-09-28T16:57:54.150Z,98862.28
2022-09-28T16:59:56.973Z,98868.31
2022-09-28T17:02:00.007Z,98859.34
2022-09-28T17:04:03.340Z,98866.84
2022-09-28T17:06:11.778Z,98868.31
2022-09-28T17:08:17.509Z,98867.34
2022-09-28T17:10:25.560Z,98868.09
2022-09-28T17:12:29.165Z,98868.75
2022-09-28T17:14:32.831Z,98872.97
2022-09-28T17:17:06.107Z,98880.38
2022-09-28T17:19:01.127Z,98877.31
2022-09-28T17:21:07.569Z,98881.34
2022-09-28T17:23:10.444Z,98886.63
2022-09-28T17:25:13.425Z,98891.78
2022-09-28T17:27:21.284Z,98892.44
2022-09-28T17:29:24.245Z,98895.41
2022-09-28T17:31:27.464Z,98895.09
2022-09-28T17:33:30.672Z,98891.69
2022-09-28T17:35:38.849Z,98901.47
2022-09-28T17:37:42.791Z,98902.13
2022-09-28T17:39:45.773Z,98907.09
2022-09-28T17:41:48.716Z,98902.94
2022-09-28T17:43:53.143Z,98910.50
2022-09-28T17:45:56.108Z,98905.91
2022-09-28T17:48:00.703Z,98911.63
2022-09-28T17:50:04.001Z,98910.16
2022-09-28T17:52:07.251Z,98905.44
2022-09-28T17:54:10.294Z,98903.66
2022-09-28T17:56:13.360Z,98908.34
2022-09-28T17:58:18.078Z,98904.34
2022-09-28T18:00:23.004Z,98905.66
2022-09-28T18:02:27.085Z,98909.44
2022-09-28T18:04:50.666Z,98911.22
2022-09-28T18:06:54.092Z,98915.66
2022-09-28T18:08:57.045Z,98914.16
2022-09-28T18:11:01.626Z,98911.53
2022-09-28T18:13:04.727Z,98911.28
2022-09-28T18:15:09.070Z,98918.16
2022-09-28T18:17:13.535Z,98920.38
2022-09-28T18:19:16.593Z,98919.94
2022-09-28T18:21:19.867Z,98922.34
2022-09-28T18:23:23.136Z,98926.66
2022-09-28T18:25:29.819Z,98927.41
2022-09-28T18:27:35.518Z,98935.00
2022-09-28T18:29:38.528Z,98932.69
2022-09-28T18:31:41.600Z,98935.53
2022-09-28T18:33:46.339Z,98938.16
2022-09-28T18:35:53.036Z,98945.53
2022-09-28T18:37:55.996Z,98936.97
2022-09-28T18:39:59.339Z,98943.69
2022-09-28T18:42:02.409Z,98941.34
2022-09-28T18:44:05.346Z,98944.25
2022-09-28T18:46:09.336Z,98948.50
2022-09-28T18:48:13.957Z,98950.84
2022-09-28T18:50:18.303Z,98946.81
2022-09-28T18:52:21.283Z,98946.25
2022-09-28T18:54:25.410Z,98955.78
2022-09-28T18:56:29.716Z,98954.38
2022-09-28T18:58:35.748Z,98954.88
2022-09-28T19:00:40.213Z,98958.06
2022-09-28T19:02:43.525Z,98952.94
2022-09-28T19:04:46.549Z,98957.66
2022-09-28T19:06:54.431Z,98955.63
2022-09-28T19:08:58.181Z,98960.13
2022-09-28T19:11:08.489Z,98958.06
2022-09-28T19:13:11.464Z,98954.38
2022-09-28T19:15:14.503Z,98958.63
2022-09-28T19:17:18.391Z,98956.00
2022-09-28T19:19:21.941Z,98956.53
2022-09-28T19:21:25.057Z,98949.19
2022-09-28T19:23:30.864Z,98960.25
2022-09-28T19:25:34.120Z,98959.28
2022-09-28T19:27:37.523Z,98959.19
2022-09-28T19:29:40.555Z,98964.00
2022-09-28T19:31:44.620Z,98957.50
2022-09-28T19:33:48.191Z,98956.75
2022-09-28T19:35:57.213Z,98957.91
2022-09-28T19:38:00.258Z,98967.47
2022-09-28T19:40:06.006Z,98959.97
2022-09-28T19:42:09.141Z,98968.59
2022-09-28T19:44:15.835Z,98967.66
2022-09-28T19:46:18.998Z,98969.34
2022-09-28T19:48:26.608Z,98970.13
2022-09-28T19:50:30.201Z,98980.63
2022-09-28T19:52:33.206Z,98977.31
2022-09-28T19:54:37.649Z,98984.94
2022-09-28T19:56:43.208Z,98987.94
2022-09-28T19:58:46.228Z,98985.31
2022-09-28T20:00:49.273Z,98990.34
2022-09-28T20:02:52.987Z,98990.34
2022-09-28T20:04:55.983Z,98991.44
2022-09-28T20:06:58.990Z,98992.13
2022-09-28T20:09:02.413Z,98988.63
2022-09-28T20:11:08.407Z,98995.84
2022-09-28T20:13:12.831Z,98997.09
2022-09-28T20:15:16.630Z,99001.31
2022-09-28T20:17:21.682Z,98999.16
2022-09-28T20:19:24.712Z,98999.34
2022-09-28T20:21:27.924Z,98998.34
2022-09-28T20:23:31.377Z,99000.97
2022-09-28T20:25:35.590Z,99000.97
2022-09-28T20:27:39.198Z,98996.47
2022-09-28T20:29:43.514Z,99000.69
2022-09-28T20:31:46.546Z,99006.81
2022-09-28T20:33:49.941Z,98998.91
2022-09-28T20:35:52.908Z,99007.63
2022-09-28T20:37:59.205Z,99005.84
2022-09-28T20:40:02.726Z,99008.50
2022-09-28T20:42:06.485Z,99008.69
2022-09-28T20:44:09.961Z,99007.88
2022-09-28T20:46:17.660Z,99011.59
2022-09-28T20:48:21.797Z,99012.44
2022-09-28T20:50:25.337Z,99019.56
2022-09-28T20:52:28.405Z,99012.81
2022-09-28T20:54:32.251Z,99021.63
2022-09-28T20:56:38.282Z,99021.06
2022-09-28T20:58:41.926Z,99023.03
2022-09-28T21:00:45.750Z,99020.63
2022-09-28T21:02:53.920Z,99024.66
2022-09-28T21:04:57.064Z,99029.06
2022-09-28T21:07:00.012Z,99033.84
2022-09-28T21:09:03.743Z,99029.28
2022-09-28T21:11:09.436Z,99034.13
2022-09-28T21:13:12.498Z,99044.38
2022-09-28T21:15:15.564Z,99039.91
2022-09-28T21:17:18.530Z,99033.63
2022-09-28T21:19:24.177Z,99036.50
2022-09-28T21:21:27.383Z,99038.81
2022-09-28T21:23:30.388Z,99043.81
2022-09-28T21:25:33.340Z,99039.66
2022-09-28T21:27:36.554Z,99042.28
2022-09-28T21:29:39.460Z,99043.97
2022-09-28T21:31:45.661Z,99051.69
2022-09-28T21:33:48.647Z,99054.69
2022-09-28T21:35:53.080Z,99042.44
2022-09-28T21:37:56.131Z,99047.66
2022-09-28T21:39:59.494Z,99052.66
2022-09-28T21:42:02.469Z,99048.44
2022-09-28T21:44:05.555Z,99055.19
2022-09-28T21:46:08.622Z,99054.34
2022-09-28T21:48:11.759Z,99062.91
2022-09-28T21:50:15.139Z,99062.00
2022-09-28T21:52:19.419Z,99061.22
2022-09-28T21:54:22.504Z,99054.28
2022-09-28T21:56:26.747Z,99062.19
2022-09-28T21:58:31.357Z,99051.66
2022-09-28T22:00:34.537Z,99051.66
2022-09-28T22:02:38.990Z,99049.06
2022-09-28T22:04:42.049Z,99051.78
2022-09-28T22:06:45.009Z,99051.97
2022-09-28T22:08:50.133Z,99054.69
2022-09-28T22:11:00.881Z,99052.25
2022-09-28T22:13:03.812Z,99049.00
2022-09-28T22:15:08.170Z,99047.72
2022-09-28T22:17:11.096Z,99043.91
2022-09-28T22:19:13.992Z,99055.34
2022-09-28T22:21:18.732Z,99055.78
2022-09-28T22:23:22.724Z,99057.81
2022-09-28T22:25:27.208Z,99057.88
2022-09-28T22:27:32.914Z,99064.84
2022-09-28T22:29:36.008Z,99064.66
2022-09-28T22:31:40.688Z,99061.63
2022-09-28T22:33:43.715Z,99062.53
2022-09-28T22:35:49.135Z,99065.16
2022-09-28T22:37:52.098Z,99061.00
2022-09-28T22:39:55.338Z,99062.66
2022-09-28T22:41:59.738Z,99063.94
2022-09-28T22:44:02.987Z,99067.59
2022-09-28T22:46:10.346Z,99075.66
2022-09-28T22:48:13.892Z,99069.72
2022-09-28T22:50:16.918Z,99071.75
2022-09-28T22:52:19.787Z,99080.53
2022-09-28T22:54:22.733Z,99081.56
2022-09-28T22:56:26.003Z,99077.63
2022-09-28T22:58:30.260Z,99084.13
2022-09-28T23:00:33.389Z,99079.78
2022-09-28T23:02:36.354Z,99071.28
2022-09-28T23:04:39.356Z,99078.38
2022-09-28T23:06:42.490Z,99073.13
2022-09-28T23:08:45.970Z,99075.75
2022-09-28T23:10:49.677Z,99071.84
2022-09-28T23:12:54.837Z,99077.16
2022-09-28T23:14:59.144Z,99070.38
2022-09-28T23:17:02.111Z,99080.03
2022-09-28T23:19:05.183Z,99074.00
2022-09-28T23:21:10.752Z,99072.41
2022-09-28T23:23:14.513Z,99070.84
2022-09-28T23:25:18.800Z,99075.22
2022-09-28T23:27:22.156Z,99074.41
2022-09-28T23:29:25.149Z,99076.09
2022-09-28T23:31:31.476Z,99077.03
2022-09-28T23:33:34.547Z,99078.88
2022-09-28T23:35:37.495Z,99080.69
2022-09-28T23:37:40.564Z,99073.28
2022-09-28T23:39:44.419Z,99072.34
2022-09-28T23:41:47.432Z,99076.59
2022-09-28T23:43:50.382Z,99068.78
2022-09-28T23:45:53.450Z,99081.00
2022-09-28T23:47:57.979Z,99080.38
2022-09-28T23:50:00.961Z,99075.81
2022-09-28T23:52:03.866Z,99083.78
2022-09-28T23:54:06.893Z,99074.38
2022-09-28T23:56:09.849Z,99078.84
2022-09-28T23:58:13.576Z,99082.44
